createdAt,value
2023-02-23T00:00:46.138Z,22.05
2023-02-23T00:05:50.020Z,19.98
2023-02-23T00:10:59.416Z,22.23
2023-02-23T00:16:06.991Z,22.35
2023-02-23T00:21:10.833Z,23.33
2023-02-23T00:26:14.819Z,21.15
2023-02-23T00:31:19.993Z,18.02
2023-02-23T00:36:27.539Z,21.58
2023-02-23T00:41:31.336Z,22.48
2023-02-23T00:46:35.581Z,19.88
2023-02-23T00:51:39.950Z,19.27
2023-02-23T00:56:44.169Z,19.15
2023-02-23T01:01:48.268Z,19.88
2023-02-23T01:06:52.223Z,19.23
2023-02-23T01:11:58.050Z,20.33
2023-02-23T01:17:01.882Z,16.52
2023-02-23T01:22:06.189Z,21.33
2023-02-23T01:27:10.010Z,21.40
2023-02-23T01:32:15.030Z,20.20
2023-02-23T01:37:18.870Z,20.30
2023-02-23T01:42:23.614Z,18.95
2023-02-23T01:47:28.169Z,20.63
2023-02-23T01:52:35.629Z,22.92
2023-02-23T01:57:42.231Z,19.85
2023-02-23T02:02:49.468Z,21.17
2023-02-23T02:07:59.700Z,23.08
2023-02-23T02:13:06.931Z,24.58
2023-02-23T02:18:38.913Z,18.60
2023-02-23T02:23:46.866Z,19.33
2023-02-23T02:29:28.359Z,21.08
2023-02-23T02:34:51.265Z,18.58
2023-02-23T02:40:17.210Z,17.92
2023-02-23T02:45:24.132Z,18.23
2023-02-23T02:51:06.684Z,16.42
2023-02-23T02:56:12.271Z,18.25
2023-02-23T03:01:38.181Z,17.58
2023-02-23T03:07:07.828Z,16.00
2023-02-23T03:12:45.313Z,13.27
2023-02-23T03:18:19.213Z,16.70
2023-02-23T03:24:09.127Z,15.77
2023-02-23T03:29:37.335Z,13.05
2023-02-23T03:35:09.936Z,15.63
2023-02-23T03:40:45.564Z,14.57
2023-02-23T03:46:09.203Z,16.15
2023-02-23T03:51:37.134Z,18.60
2023-02-23T03:57:04.469Z,15.60
2023-02-23T04:02:29.569Z,16.40
2023-02-23T04:07:54.148Z,14.43
2023-02-23T04:13:31.577Z,13.02
2023-02-23T04:18:37.920Z,11.35
2023-02-23T04:23:43.575Z,12.43
2023-02-23T04:28:47.382Z,12.75
2023-02-23T04:33:52.038Z,12.38
2023-02-23T04:38:55.966Z,14.27
2023-02-23T04:43:59.787Z,12.77
2023-02-23T04:49:04.919Z,14.00
2023-02-23T04:54:08.925Z,13.75
2023-02-23T04:59:13.158Z,14.27
2023-02-23T05:04:16.983Z,10.85
2023-02-23T05:09:21.325Z,12.00
2023-02-23T05:14:27.145Z,13.15
2023-02-23T05:19:31.015Z,12.57
2023-02-23T05:24:35.061Z,13.32
2023-02-23T05:29:39.004Z,10.57
2023-02-23T05:34:43.023Z,13.48
2023-02-23T05:39:48.242Z,14.20
2023-02-23T05:44:52.209Z,21.58
2023-02-23T05:49:56.182Z,13.07
2023-02-23T05:55:00.280Z,10.98
2023-02-23T06:00:06.378Z,11.98
2023-02-23T06:05:12.463Z,11.13
2023-02-23T06:10:17.460Z,13.85
2023-02-23T06:15:21.224Z,11.63
2023-02-23T06:20:25.151Z,12.80
2023-02-23T06:25:28.833Z,12.50
2023-02-23T06:30:32.866Z,10.65
2023-02-23T06:35:36.998Z,10.43
2023-02-23T06:40:42.356Z,12.57
2023-02-23T06:45:48.811Z,8.90
2023-02-23T06:50:54.854Z,11.45
2023-02-23T06:55:58.819Z,10.70
2023-02-23T07:01:02.875Z,10.05
2023-02-23T07:06:07.596Z,9.15
2023-02-23T07:11:14.656Z,10.50
2023-02-23T07:16:18.571Z,10.23
2023-02-23T07:21:23.343Z,10.63
2023-02-23T07:26:27.382Z,9.98
2023-02-23T07:31:31.541Z,10.90
2023-02-23T07:36:35.969Z,11.32
2023-02-23T07:41:39.769Z,10.93
2023-02-23T07:46:53.797Z,11.10
2023-02-23T07:51:57.601Z,10.32
2023-02-23T07:57:01.983Z,14.20
2023-02-23T08:02:06.040Z,13.43
2023-02-23T08:07:11.222Z,13.60
2023-02-23T08:12:16.543Z,13.63
2023-02-23T08:17:20.722Z,13.43
2023-02-23T08:22:24.743Z,13.40
2023-02-23T08:27:28.522Z,13.02
2023-02-23T08:32:37.596Z,12.75
2023-02-23T08:37:43.510Z,13.02
2023-02-23T08:42:52.990Z,15.32
2023-02-23T08:47:57.461Z,17.58
2023-02-23T08:53:01.304Z,13.68
2023-02-23T08:58:10.037Z,15.48
2023-02-23T09:03:13.909Z,14.25
2023-02-23T09:08:17.723Z,17.13
2023-02-23T09:13:21.697Z,18.77
2023-02-23T09:18:30.322Z,14.88
2023-02-23T09:23:37.953Z,15.30
2023-02-23T09:28:41.992Z,15.25
2023-02-23T09:33:46.021Z,17.80
2023-02-23T09:38:57.173Z,20.20
2023-02-23T09:44:14.366Z,22.05
2023-02-23T09:49:22.652Z,17.08
2023-02-23T09:54:31.365Z,16.90
2023-02-23T09:59:36.883Z,21.10
2023-02-23T10:04:50.293Z,21.85
2023-02-23T10:10:27.176Z,22.33
2023-02-23T10:15:42.937Z,21.42
2023-02-23T10:21:14.980Z,19.52
2023-02-23T10:26:25.248Z,16.45
2023-02-23T10:31:43.035Z,22.63
2023-02-23T10:37:03.069Z,23.10
2023-02-23T10:42:15.743Z,21.42
2023-02-23T10:47:27.621Z,22.80
2023-02-23T10:52:32.689Z,25.42
2023-02-23T10:57:40.712Z,22.70
2023-02-23T11:02:46.689Z,26.25
2023-02-23T11:07:50.521Z,24.77
2023-02-23T11:12:54.745Z,26.73
2023-02-23T11:18:01.556Z,33.22
2023-02-23T11:23:31.250Z,36.65
2023-02-23T11:28:37.755Z,34.28
2023-02-23T11:33:41.857Z,36.40
2023-02-23T11:38:48.533Z,39.53
2023-02-23T11:43:57.619Z,33.67
2023-02-23T11:49:07.212Z,44.22
2023-02-23T11:54:28.234Z,39.72
2023-02-23T11:59:40.411Z,42.20
2023-02-23T12:04:48.583Z,41.50
2023-02-23T12:10:07.288Z,37.53
2023-02-23T12:15:29.472Z,40.78
2023-02-23T12:20:40.701Z,36.25
2023-02-23T12:25:53.808Z,39.28
2023-02-23T12:31:05.925Z,40.13
2023-02-23T12:36:36.188Z,39.28
2023-02-23T12:42:18.577Z,37.80
2023-02-23T12:47:42.088Z,37.38
2023-02-23T12:52:59.474Z,34.80
2023-02-23T12:58:24.219Z,43.97
2023-02-23T13:03:49.425Z,39.00
2023-02-23T13:09:15.658Z,41.00
2023-02-23T13:14:59.540Z,36.55
2023-02-23T13:20:20.763Z,45.65
2023-02-23T13:25:39.110Z,46.70
2023-02-23T13:30:48.414Z,43.40
2023-02-23T13:41:13.784Z,45.05
2023-02-23T13:46:39.954Z,44.40
2023-02-23T13:52:00.986Z,51.25
2023-02-23T13:57:14.188Z,48.20
2023-02-23T14:02:40.000Z,42.47
2023-02-23T14:07:46.498Z,49.40
2023-02-23T14:13:18.728Z,44.63
2023-02-23T14:18:22.484Z,41.20
2023-02-23T14:23:27.304Z,41.90
2023-02-23T14:28:34.399Z,46.50
2023-02-23T14:33:52.915Z,44.55
2023-02-23T14:39:03.353Z,40.67
2023-02-23T14:44:30.047Z,40.67
2023-02-23T14:49:44.596Z,35.90
2023-02-23T14:54:49.077Z,36.67
2023-02-23T15:00:08.480Z,37.90
2023-02-23T15:10:30.833Z,33.72
2023-02-23T15:15:34.910Z,32.75
2023-02-23T15:20:38.771Z,34.47
2023-02-23T15:25:45.195Z,28.48
2023-02-23T15:30:51.601Z,29.10
2023-02-23T15:35:57.140Z,30.35
2023-02-23T15:41:05.124Z,26.85
2023-02-23T15:46:10.400Z,24.60
2023-02-23T15:51:30.670Z,24.85
2023-02-23T15:56:35.815Z,24.73
2023-02-23T16:01:45.452Z,20.00
2023-02-23T16:07:07.133Z,20.73
2023-02-23T16:12:18.191Z,19.65
2023-02-23T16:17:35.308Z,18.90
2023-02-23T16:22:40.665Z,21.88
2023-02-23T16:27:46.609Z,20.00
2023-02-23T16:33:08.321Z,19.73
2023-02-23T16:38:14.481Z,17.77
2023-02-23T16:43:18.341Z,17.25
2023-02-23T16:48:23.943Z,16.35
2023-02-23T16:53:28.101Z,17.65
2023-02-23T16:58:36.765Z,16.02
2023-02-23T17:03:47.394Z,16.37
2023-02-23T17:08:58.750Z,16.70
2023-02-23T17:14:03.038Z,15.73
2023-02-23T17:19:08.103Z,15.43
2023-02-23T17:24:11.958Z,15.80
2023-02-23T17:29:15.775Z,16.08
2023-02-23T17:34:19.625Z,19.05
2023-02-23T17:39:28.690Z,16.67
2023-02-23T17:44:32.515Z,18.95
2023-02-23T17:49:36.741Z,17.25
2023-02-23T17:54:40.776Z,18.58
2023-02-23T17:59:44.750Z,18.63
2023-02-23T18:04:50.585Z,19.00
2023-02-23T18:09:54.653Z,21.35
2023-02-23T18:14:59.092Z,18.67
2023-02-23T18:20:03.029Z,19.77
2023-02-23T18:25:07.601Z,19.48
2023-02-23T18:30:12.148Z,18.98
2023-02-23T18:35:16.278Z,18.13
2023-02-23T18:40:24.574Z,18.88
2023-02-23T18:45:28.728Z,16.17
2023-02-23T18:50:32.747Z,17.92
2023-02-23T18:55:38.540Z,16.17
2023-02-23T19:00:43.746Z,18.92
2023-02-23T19:05:53.876Z,18.52
2023-02-23T19:10:58.813Z,16.42
2023-02-23T19:16:10.090Z,22.65
2023-02-23T19:21:15.765Z,16.75
2023-02-23T19:26:20.248Z,19.25
2023-02-23T19:31:26.690Z,16.33
2023-02-23T19:36:32.394Z,19.83
2023-02-23T19:41:36.490Z,18.27
2023-02-23T19:46:40.680Z,16.63
2023-02-23T19:51:45.828Z,19.70
2023-02-23T19:56:50.534Z,15.27
2023-02-23T20:01:54.572Z,18.13
2023-02-23T20:06:58.586Z,15.82
2023-02-23T20:12:02.487Z,13.70
2023-02-23T20:17:07.205Z,19.63
2023-02-23T20:22:10.975Z,14.93
2023-02-23T20:27:14.913Z,15.43
2023-02-23T20:32:18.790Z,14.00
2023-02-23T20:37:32.008Z,15.63
2023-02-23T20:42:35.868Z,14.88
2023-02-23T20:47:40.030Z,17.95
2023-02-23T20:52:45.061Z,16.42
2023-02-23T20:57:49.446Z,14.77
2023-02-23T21:02:56.191Z,16.92
2023-02-23T21:08:02.345Z,15.45
2023-02-23T21:13:06.896Z,15.68
2023-02-23T21:18:11.304Z,18.95
2023-02-23T21:23:18.268Z,18.80
2023-02-23T21:28:22.843Z,16.48
2023-02-23T21:33:26.891Z,16.35
2023-02-23T21:38:30.796Z,15.68
2023-02-23T21:43:39.753Z,20.73
2023-02-23T21:48:44.350Z,16.92
2023-02-23T21:53:49.842Z,16.25
2023-02-23T21:58:56.737Z,18.90
2023-02-23T22:04:00.533Z,20.05
2023-02-23T22:09:07.418Z,16.48
2023-02-23T22:14:11.940Z,19.83
2023-02-23T22:19:16.702Z,16.08
2023-02-23T22:24:20.526Z,15.13
2023-02-23T22:29:26.091Z,14.70
2023-02-23T22:34:29.879Z,15.63
2023-02-23T22:39:34.288Z,20.88
2023-02-23T22:44:39.897Z,14.77
2023-02-23T22:49:43.574Z,16.40
2023-02-23T22:54:48.682Z,13.68
2023-02-23T23:00:01.192Z,16.48
2023-02-23T23:05:08.748Z,11.23
2023-02-23T23:10:13.545Z,14.32
2023-02-23T23:15:19.972Z,13.10
2023-02-23T23:20:26.525Z,11.90
2023-02-23T23:25:30.324Z,13.48
2023-02-23T23:30:36.056Z,14.20
2023-02-23T23:35:39.875Z,15.32
2023-02-23T23:40:47.637Z,11.48
2023-02-23T23:45:52.400Z,11.00
2023-02-23T23:50:56.960Z,11.88
2023-02-23T23:56:06.986Z,13.73
